Jiu Hua San — 9VBK2 — position and weather

sailwx.info

Track history (hours):
 
Tides and Currents Weather Stations Pressure Air Temp Water Temp Dewpoint Dewpoint Depression Visibility Wind Speed Wind Dir Waves Ship Positions

Jiu Hua San

Last reported at 2015-Feb-21 17:32 UTC. Time now 2015-Mar-06 00:10 UTC.
Position N 07°42' E 076°29'.
Warning: this ship's position is 12 days out of date.

Length 333 m; draft 11.3 m.

Type: Ship (hazmat cat A). MMSI: 565914000.

Date/timePositionNaut miles runAvg speedWind from/ knotsBaromVisibWave heightAir tempDewpointWater temp
2015-Feb-21 17:32N 07°42' E 076°29'1212.2
2015-Feb-21 16:33N 07°35' E 076°39'1312.6
2015-Feb-21 15:33N 07°28' E 076°49'1312.9
2015-Feb-21 14:33N 07°22' E 077°01'1313.0
2015-Feb-21 13:32N 07°15' E 077°12'1612.8
2015-Feb-21 12:20N 07°06' E 077°25'1012.1
2015-Feb-21 11:32N 07°01' E 077°33'1212.0
2015-Feb-21 10:33N 06°55' E 077°43'1312.0
2015-Feb-21 09:26N 06°48' E 077°55'1111.8
2015-Feb-21 08:33N 06°43' E 078°04'  
2015-Feb-15 02:13N 01°11' E 103°40'6 8.7
2015-Feb-15 01:32N 01°10' E 103°46'1110.7
2015-Feb-15 00:33N 01°14' E 103°56'1211.5
2015-Feb-14 23:33N 01°16' E 104°07'1311.8
2015-Feb-14 22:27N 01°19' E 104°20'  
Track history (hours):
 
Tides and Currents Weather Stations Pressure Air Temp Water Temp Dewpoint Dewpoint Depression Visibility Wind Speed Wind Dir Waves Ship Positions

Jiu Hua San

Last reported at 2015-Feb-21 17:32 UTC. Time now 2015-Mar-06 00:10 UTC.
Position N 07°42' E 076°29'.
Warning: this ship's position is 12 days out of date.

Length 333 m; draft 11.3 m.

Type: Ship (hazmat cat A). MMSI: 565914000.

Date/timePositionNaut miles runAvg speedWind from/ knotsBaromVisibWave heightAir tempDewpointWater temp
2015-Feb-21 17:32N 07°42' E 076°29'1212.2
2015-Feb-21 16:33N 07°35' E 076°39'1312.6
2015-Feb-21 15:33N 07°28' E 076°49'1312.9
2015-Feb-21 14:33N 07°22' E 077°01'1313.0
2015-Feb-21 13:32N 07°15' E 077°12'1612.8
2015-Feb-21 12:20N 07°06' E 077°25'1012.1
2015-Feb-21 11:32N 07°01' E 077°33'1212.0
2015-Feb-21 10:33N 06°55' E 077°43'1312.0
2015-Feb-21 09:26N 06°48' E 077°55'1111.8
2015-Feb-21 08:33N 06°43' E 078°04'  
2015-Feb-15 02:13N 01°11' E 103°40'6 8.7
2015-Feb-15 01:32N 01°10' E 103°46'1110.7
2015-Feb-15 00:33N 01°14' E 103°56'1211.5
2015-Feb-14 23:33N 01°16' E 104°07'1311.8
2015-Feb-14 22:27N 01°19' E 104°20'  

Dump ship's entire track history